createdAt,value
2018-03-22T00:00:31.054Z,72.20
2018-03-22T00:02:58.609Z,72.60
2018-03-22T00:05:26.038Z,72.90
2018-03-22T00:07:53.543Z,73.60
2018-03-22T00:10:21.162Z,73.30
2018-03-22T00:12:48.658Z,73.60
2018-03-22T00:15:16.194Z,74.00
2018-03-22T00:17:43.716Z,74.20
2018-03-22T00:20:11.202Z,74.20
2018-03-22T00:22:39.122Z,74.70
2018-03-22T00:25:07.029Z,74.90
2018-03-22T00:27:35.296Z,76.00
2018-03-22T00:30:03.538Z,75.80
2018-03-22T00:32:31.029Z,75.80
2018-03-22T00:34:58.510Z,76.20
2018-03-22T00:37:27.067Z,77.10
2018-03-22T00:39:54.576Z,77.00
2018-03-22T00:42:22.015Z,76.70
2018-03-22T00:44:50.256Z,76.40
2018-03-22T00:47:17.732Z,76.40
2018-03-22T00:49:45.577Z,76.20
2018-03-22T00:52:13.051Z,77.00
2018-03-22T00:54:40.608Z,76.70
2018-03-22T00:57:08.078Z,77.00
2018-03-22T00:59:35.621Z,77.00
2018-03-22T01:02:04.216Z,76.70
2018-03-22T01:04:31.641Z,76.60
2018-03-22T01:06:59.156Z,76.10
2018-03-22T01:09:26.643Z,75.50
2018-03-22T01:11:54.304Z,75.70
2018-03-22T01:14:22.008Z,75.40
2018-03-22T01:16:49.640Z,75.10
2018-03-22T01:19:17.212Z,75.10
2018-03-22T01:21:44.701Z,74.40
2018-03-22T01:24:12.617Z,73.60
2018-03-22T01:26:40.096Z,72.90
2018-03-22T01:29:08.157Z,71.40
2018-03-22T01:31:36.405Z,72.10
2018-03-22T01:34:03.904Z,72.00
2018-03-22T01:36:31.481Z,71.60
2018-03-22T01:38:59.061Z,71.40
2018-03-22T01:41:26.581Z,71.70
2018-03-22T01:43:54.159Z,71.90
2018-03-22T01:46:22.040Z,71.70
2018-03-22T01:48:49.566Z,71.70
2018-03-22T01:51:17.081Z,71.40
2018-03-22T01:53:44.708Z,71.60
2018-03-22T01:56:12.156Z,71.50
2018-03-22T01:58:39.804Z,72.20
2018-03-22T02:01:08.087Z,71.50
2018-03-22T02:03:35.566Z,71.50
2018-03-22T02:06:03.076Z,71.20
2018-03-22T02:08:30.560Z,71.30
2018-03-22T02:10:58.854Z,71.80
2018-03-22T02:13:27.100Z,70.90
2018-03-22T02:15:54.670Z,70.90
2018-03-22T02:18:22.266Z,70.50
2018-03-22T02:20:49.964Z,70.50
2018-03-22T02:23:18.286Z,70.30
2018-03-22T02:25:45.781Z,70.30
2018-03-22T02:28:13.292Z,70.50
2018-03-22T02:30:40.879Z,70.50
2018-03-22T02:33:09.126Z,70.50
2018-03-22T02:35:36.767Z,70.50
2018-03-22T02:38:04.263Z,69.90
2018-03-22T02:40:31.875Z,69.80
2018-03-22T02:43:00.134Z,69.60
2018-03-22T02:45:27.650Z,69.60
2018-03-22T02:47:55.903Z,68.50
2018-03-22T02:50:24.194Z,67.60
2018-03-22T02:52:52.487Z,66.80
2018-03-22T02:55:20.016Z,66.80
2018-03-22T02:57:47.517Z,65.80
2018-03-22T03:00:15.749Z,64.90
2018-03-22T03:02:43.970Z,64.90
2018-03-22T03:05:11.596Z,64.80
2018-03-22T03:07:39.101Z,65.00
2018-03-22T03:10:06.646Z,65.20
2018-03-22T03:12:34.963Z,65.80
2018-03-22T03:15:03.252Z,66.10
2018-03-22T03:17:30.773Z,66.10
2018-03-22T03:19:58.255Z,66.60
2018-03-22T03:22:25.812Z,68.00
2018-03-22T03:24:53.357Z,68.40
2018-03-22T03:27:20.846Z,69.60
2018-03-22T03:29:48.476Z,69.70
2018-03-22T03:32:16.091Z,70.40
2018-03-22T03:34:43.953Z,70.80
2018-03-22T03:37:12.252Z,70.80
2018-03-22T03:39:40.613Z,71.70
2018-03-22T03:42:08.086Z,71.70
2018-03-22T03:44:35.607Z,72.40
2018-03-22T03:47:03.231Z,73.10
2018-03-22T03:49:30.722Z,73.70
2018-03-22T03:51:58.601Z,74.70
2018-03-22T03:54:26.051Z,75.50
2018-03-22T03:56:53.593Z,75.70
2018-03-22T03:59:21.665Z,76.70
2018-03-22T04:01:49.363Z,78.20
2018-03-22T04:04:16.820Z,78.20
2018-03-22T04:06:45.179Z,78.60
2018-03-22T04:09:12.957Z,80.00
2018-03-22T04:11:40.498Z,83.70
2018-03-22T04:14:08.087Z,87.60
2018-03-22T04:16:36.372Z,91.30
2018-03-22T04:19:03.826Z,91.30
2018-03-22T04:21:31.323Z,91.30
2018-03-22T04:24:00.494Z,91.60
2018-03-22T04:26:28.136Z,91.50
2018-03-22T04:28:55.666Z,92.10
2018-03-22T04:31:23.203Z,93.10
2018-03-22T04:33:50.670Z,94.10
2018-03-22T04:36:18.220Z,94.90
2018-03-22T04:38:45.728Z,95.40
2018-03-22T04:41:13.242Z,95.60
2018-03-22T04:43:40.788Z,95.60
2018-03-22T04:46:08.315Z,95.70
2018-03-22T04:48:35.746Z,95.90
2018-03-22T04:51:03.629Z,95.80
2018-03-22T04:53:31.079Z,95.90
2018-03-22T04:55:58.693Z,96.00
2018-03-22T04:58:26.133Z,96.20
2018-03-22T05:00:54.439Z,97.30
2018-03-22T05:03:21.931Z,97.20
2018-03-22T05:05:49.485Z,97.30
2018-03-22T05:08:16.934Z,97.50
2018-03-22T05:10:44.470Z,97.70
2018-03-22T05:13:11.950Z,97.80
2018-03-22T05:15:39.484Z,98.10
2018-03-22T05:18:08.496Z,98.80
2018-03-22T05:20:36.025Z,98.70
2018-03-22T05:23:03.518Z,99.10
2018-03-22T05:25:31.786Z,99.60
2018-03-22T05:28:00.086Z,99.80
2018-03-22T05:30:28.511Z,99.80
2018-03-22T05:32:56.810Z,99.90
2018-03-22T05:35:24.354Z,99.90
2018-03-22T05:37:51.948Z,99.90
2018-03-22T05:40:19.415Z,99.90
2018-03-22T05:42:46.934Z,99.90
2018-03-22T05:45:14.606Z,99.90
2018-03-22T05:47:42.161Z,99.90
2018-03-22T05:50:09.687Z,99.90
2018-03-22T05:52:37.237Z,99.90
2018-03-22T05:55:04.692Z,99.90
2018-03-22T05:57:32.481Z,99.90
2018-03-22T05:59:59.969Z,99.90
2018-03-22T06:02:27.572Z,99.90
2018-03-22T06:04:55.856Z,99.90
2018-03-22T06:07:23.407Z,99.90
2018-03-22T06:09:51.651Z,99.90
2018-03-22T06:12:19.964Z,99.90
2018-03-22T06:14:47.837Z,99.90
2018-03-22T06:17:15.402Z,99.90
2018-03-22T06:19:44.560Z,99.90
2018-03-22T06:22:12.128Z,99.90
2018-03-22T06:24:39.693Z,99.90
2018-03-22T06:27:07.221Z,99.90
2018-03-22T06:29:34.810Z,99.90
2018-03-22T06:32:02.313Z,99.90
2018-03-22T06:34:29.832Z,99.90
2018-03-22T06:36:57.472Z,99.90
2018-03-22T06:39:25.215Z,99.90
2018-03-22T06:41:52.725Z,99.90
2018-03-22T06:44:20.260Z,99.90
2018-03-22T06:46:47.798Z,99.90
2018-03-22T06:49:16.132Z,99.90
2018-03-22T06:51:43.642Z,99.90
2018-03-22T06:54:11.881Z,99.90
2018-03-22T06:56:39.412Z,99.90
2018-03-22T06:59:06.903Z,99.90
2018-03-22T07:01:34.460Z,99.90
2018-03-22T07:04:01.926Z,99.90
2018-03-22T07:06:29.441Z,99.90
2018-03-22T07:08:56.960Z,99.90
2018-03-22T07:11:24.495Z,99.90
2018-03-22T07:13:52.015Z,99.90
2018-03-22T07:16:20.311Z,99.90
2018-03-22T07:18:48.054Z,99.90
2018-03-22T07:21:15.510Z,99.90
2018-03-22T07:23:43.828Z,99.90
2018-03-22T07:26:12.048Z,99.90
2018-03-22T07:28:39.557Z,99.90
2018-03-22T07:31:08.001Z,99.90
2018-03-22T07:33:35.459Z,99.90
2018-03-22T07:36:03.021Z,99.90
2018-03-22T07:38:30.527Z,99.90
2018-03-22T07:40:58.077Z,99.90
2018-03-22T07:43:26.349Z,99.90
2018-03-22T07:45:53.880Z,99.90
2018-03-22T07:48:21.531Z,99.90
2018-03-22T07:50:49.820Z,99.90
2018-03-22T07:53:17.351Z,99.90
2018-03-22T07:55:44.899Z,99.90
2018-03-22T07:58:12.433Z,99.90
2018-03-22T08:00:39.940Z,99.90
2018-03-22T08:03:07.723Z,99.90
2018-03-22T08:05:35.211Z,99.90
2018-03-22T08:08:03.519Z,99.90
2018-03-22T08:10:31.007Z,99.90
2018-03-22T08:12:58.557Z,99.90
2018-03-22T08:15:26.016Z,99.90
2018-03-22T08:17:53.546Z,99.90
2018-03-22T08:20:21.943Z,99.90
2018-03-22T08:22:49.398Z,99.90
2018-03-22T08:25:16.930Z,99.90
2018-03-22T08:27:44.391Z,99.90
2018-03-22T08:30:11.967Z,99.90
2018-03-22T08:32:39.596Z,99.90
2018-03-22T08:35:07.218Z,99.90
2018-03-22T08:37:34.736Z,99.90
2018-03-22T08:40:03.034Z,99.90
2018-03-22T08:42:30.579Z,99.90
2018-03-22T08:44:58.876Z,99.90
2018-03-22T08:47:27.287Z,99.90
2018-03-22T08:49:54.876Z,99.90
2018-03-22T08:52:22.284Z,99.90
2018-03-22T08:54:49.832Z,99.90
2018-03-22T08:57:18.084Z,99.90
2018-03-22T08:59:45.956Z,99.90
2018-03-22T09:02:14.126Z,99.90
2018-03-22T09:04:41.624Z,99.90
2018-03-22T09:07:09.971Z,99.90
2018-03-22T09:09:37.412Z,99.90
2018-03-22T09:12:05.746Z,99.90
2018-03-22T09:14:33.280Z,99.90
2018-03-22T09:17:00.769Z,99.90
2018-03-22T09:19:28.265Z,99.90
2018-03-22T09:21:56.549Z,99.90
2018-03-22T09:24:24.088Z,99.90
2018-03-22T09:26:51.642Z,99.90
2018-03-22T09:29:19.163Z,99.90
2018-03-22T09:31:46.728Z,99.90
2018-03-22T09:34:14.288Z,99.90
2018-03-22T09:36:41.829Z,99.90
2018-03-22T09:39:09.322Z,99.90
2018-03-22T09:41:37.067Z,99.90
2018-03-22T09:44:04.560Z,99.90
2018-03-22T09:46:32.143Z,99.90
2018-03-22T09:48:59.777Z,99.90
2018-03-22T09:51:27.256Z,99.90
2018-03-22T09:53:54.792Z,99.90
2018-03-22T09:56:22.293Z,99.90
2018-03-22T09:58:49.828Z,99.90
2018-03-22T10:01:17.292Z,99.90
2018-03-22T10:03:44.744Z,99.90
2018-03-22T10:06:12.266Z,99.90
2018-03-22T10:08:39.991Z,99.90
2018-03-22T10:11:07.468Z,99.90
2018-03-22T10:13:35.008Z,99.90
2018-03-22T10:16:03.321Z,99.90
2018-03-22T10:18:30.867Z,99.90
2018-03-22T10:20:58.331Z,99.90
2018-03-22T10:23:26.005Z,99.90
2018-03-22T10:25:53.584Z,99.90
2018-03-22T10:28:21.110Z,99.90
2018-03-22T10:30:49.201Z,99.90
2018-03-22T10:33:17.160Z,99.90
2018-03-22T10:35:45.441Z,99.90
2018-03-22T10:38:13.135Z,99.90
2018-03-22T10:40:40.701Z,99.90
2018-03-22T10:43:08.210Z,99.90
2018-03-22T10:45:36.483Z,99.90
2018-03-22T10:48:04.714Z,99.90
2018-03-22T10:50:32.198Z,99.90
2018-03-22T10:52:59.733Z,99.90
2018-03-22T10:55:27.302Z,99.90
2018-03-22T10:57:54.764Z,99.90
2018-03-22T11:00:22.352Z,99.90
2018-03-22T11:02:49.890Z,99.90
2018-03-22T11:05:17.444Z,99.90
2018-03-22T11:07:44.887Z,99.90
2018-03-22T11:10:12.401Z,99.90
2018-03-22T11:12:39.948Z,99.90
2018-03-22T11:15:08.164Z,99.90
2018-03-22T11:17:36.442Z,99.90
2018-03-22T11:20:04.853Z,99.90
2018-03-22T11:22:32.870Z,99.90
2018-03-22T11:25:00.460Z,99.90
2018-03-22T11:27:28.020Z,99.90
2018-03-22T11:29:55.626Z,99.90
2018-03-22T11:32:23.223Z,99.90
2018-03-22T11:34:50.774Z,99.90
2018-03-22T11:37:18.374Z,99.90
2018-03-22T11:39:46.564Z,99.90
2018-03-22T11:42:14.106Z,99.90
2018-03-22T11:44:41.610Z,99.90
2018-03-22T11:47:09.735Z,99.90
2018-03-22T11:49:37.740Z,99.90
2018-03-22T11:52:05.182Z,99.90
2018-03-22T11:54:32.690Z,99.90
2018-03-22T11:57:00.540Z,99.90
2018-03-22T11:59:27.952Z,99.90
2018-03-22T12:01:55.476Z,99.90
2018-03-22T12:04:23.001Z,99.90
2018-03-22T12:06:50.891Z,99.90
2018-03-22T12:09:19.132Z,99.90
2018-03-22T12:11:46.700Z,99.90
2018-03-22T12:14:14.227Z,99.90
2018-03-22T12:16:42.505Z,99.90
2018-03-22T12:19:10.016Z,99.90
2018-03-22T12:21:37.789Z,99.90
2018-03-22T12:24:06.839Z,99.90
2018-03-22T12:26:35.195Z,99.90
2018-03-22T12:29:02.687Z,99.90
2018-03-22T12:31:31.317Z,99.90
2018-03-22T12:33:59.571Z,99.90
2018-03-22T12:36:27.143Z,99.90
2018-03-22T12:38:54.671Z,99.90
2018-03-22T12:41:23.114Z,99.90
2018-03-22T12:43:50.769Z,99.90
2018-03-22T12:46:19.290Z,99.90
2018-03-22T12:48:46.823Z,99.90
2018-03-22T12:51:15.369Z,99.90
2018-03-22T12:53:43.756Z,99.90
2018-03-22T12:56:11.510Z,99.90
2018-03-22T12:58:39.036Z,99.90
2018-03-22T13:01:07.267Z,99.90
2018-03-22T13:03:34.773Z,99.90
2018-03-22T13:06:02.370Z,99.90
2018-03-22T13:08:29.873Z,99.90
2018-03-22T13:10:58.515Z,99.90
2018-03-22T13:13:26.434Z,99.90
2018-03-22T13:15:54.180Z,99.90
2018-03-22T13:18:22.458Z,99.90
2018-03-22T13:20:50.485Z,99.90
2018-03-22T13:23:18.076Z,99.90
2018-03-22T13:25:45.744Z,99.90
2018-03-22T13:28:13.229Z,99.90
2018-03-22T13:30:41.733Z,99.90
2018-03-22T13:33:09.846Z,99.90
2018-03-22T13:35:38.222Z,99.90
2018-03-22T13:38:05.737Z,99.90
2018-03-22T13:40:33.251Z,99.90
2018-03-22T13:43:01.428Z,99.90
2018-03-22T13:45:29.856Z,99.90
2018-03-22T13:47:57.615Z,99.90
2018-03-22T13:50:25.172Z,99.90
2018-03-22T13:52:52.774Z,99.90
2018-03-22T13:55:21.257Z,99.90
2018-03-22T13:57:48.768Z,99.90
2018-03-22T14:00:16.326Z,99.90
2018-03-22T14:02:44.548Z,99.90
2018-03-22T14:05:13.648Z,99.90
2018-03-22T14:07:41.957Z,99.90
2018-03-22T14:10:09.674Z,99.90
2018-03-22T14:12:37.239Z,99.90
2018-03-22T14:15:04.669Z,99.90
2018-03-22T14:17:32.180Z,99.90
2018-03-22T14:19:59.645Z,99.90
2018-03-22T14:22:27.154Z,99.90
2018-03-22T14:24:55.129Z,99.90
2018-03-22T14:27:22.621Z,99.90
2018-03-22T14:29:50.216Z,99.90
2018-03-22T14:32:17.737Z,99.90
2018-03-22T14:34:45.211Z,99.90
2018-03-22T14:37:12.739Z,99.90
2018-03-22T14:39:40.330Z,99.90
2018-03-22T14:42:07.877Z,99.90
2018-03-22T14:44:35.706Z,99.90
2018-03-22T14:47:03.207Z,99.90
2018-03-22T14:49:30.798Z,99.90
2018-03-22T14:51:59.120Z,99.90
2018-03-22T14:54:27.405Z,99.90
2018-03-22T14:56:55.035Z,99.90
2018-03-22T14:59:22.804Z,99.90
2018-03-22T15:01:50.295Z,99.90
2018-03-22T15:04:17.923Z,99.90
2018-03-22T15:06:45.449Z,99.90
2018-03-22T15:09:13.700Z,99.90
2018-03-22T15:11:44.994Z,99.90
2018-03-22T15:14:12.468Z,99.90
2018-03-22T15:16:40.066Z,99.90
2018-03-22T15:19:07.545Z,99.90
2018-03-22T15:21:35.356Z,99.90
2018-03-22T15:24:02.887Z,99.90
2018-03-22T15:26:30.379Z,99.90
2018-03-22T15:28:57.859Z,99.90
2018-03-22T15:31:25.404Z,99.90
2018-03-22T15:33:53.685Z,99.90
2018-03-22T15:36:21.167Z,99.90
2018-03-22T15:38:48.725Z,99.90
2018-03-22T15:41:16.687Z,99.90
2018-03-22T15:43:45.105Z,99.90
2018-03-22T15:46:12.613Z,99.90
2018-03-22T15:48:40.116Z,99.90
2018-03-22T15:51:07.638Z,99.90
2018-03-22T15:53:35.901Z,99.90
2018-03-22T15:56:03.451Z,99.90
2018-03-22T15:58:30.944Z,99.90
2018-03-22T16:00:59.192Z,99.90
2018-03-22T16:03:26.811Z,99.90
2018-03-22T16:05:55.616Z,99.90
2018-03-22T16:08:23.848Z,99.90
2018-03-22T16:10:51.347Z,99.90
2018-03-22T16:13:19.643Z,99.90
2018-03-22T16:15:47.102Z,99.90
2018-03-22T16:18:14.644Z,99.90
2018-03-22T16:20:42.350Z,99.90
2018-03-22T16:23:09.907Z,99.90
2018-03-22T16:25:37.711Z,99.90
2018-03-22T16:28:05.128Z,99.90
2018-03-22T16:30:32.868Z,99.90
2018-03-22T16:33:01.071Z,99.90
2018-03-22T16:35:28.559Z,99.90
2018-03-22T16:37:56.219Z,99.90
2018-03-22T16:40:23.832Z,99.90
2018-03-22T16:42:51.338Z,99.90
2018-03-22T16:45:18.912Z,99.90
2018-03-22T16:47:47.139Z,99.90
2018-03-22T16:50:14.611Z,99.90
2018-03-22T16:52:42.109Z,99.90
2018-03-22T16:55:09.644Z,99.90
2018-03-22T16:57:37.923Z,99.90
2018-03-22T17:00:06.262Z,99.90
2018-03-22T17:02:33.692Z,99.90
2018-03-22T17:05:02.041Z,99.90
2018-03-22T17:07:30.359Z,99.90
2018-03-22T17:09:57.825Z,99.90
2018-03-22T17:12:25.306Z,99.90
2018-03-22T17:14:52.820Z,99.90
2018-03-22T17:17:21.109Z,99.90
2018-03-22T17:19:48.694Z,99.90
2018-03-22T17:22:16.219Z,99.90
2018-03-22T17:24:43.765Z,99.90
2018-03-22T17:27:11.346Z,99.90
2018-03-22T17:29:39.853Z,99.90
2018-03-22T17:32:08.265Z,99.90
2018-03-22T17:34:35.785Z,99.90
2018-03-22T17:37:04.118Z,99.90
2018-03-22T17:39:32.400Z,99.90
2018-03-22T17:42:00.068Z,99.90
2018-03-22T17:44:27.547Z,99.90
2018-03-22T17:46:55.157Z,99.90
2018-03-22T17:49:22.966Z,99.90
2018-03-22T17:51:50.484Z,99.90
2018-03-22T17:54:17.982Z,99.90
2018-03-22T17:56:45.527Z,99.90
2018-03-22T17:59:13.822Z,99.90
2018-03-22T18:01:41.381Z,99.90
2018-03-22T18:04:08.868Z,99.90
2018-03-22T18:06:36.363Z,99.90
2018-03-22T18:09:04.681Z,99.90
2018-03-22T18:11:32.186Z,99.90
2018-03-22T18:13:59.762Z,99.90
2018-03-22T18:16:27.282Z,99.90
2018-03-22T18:18:55.763Z,99.90
2018-03-22T18:21:23.340Z,99.90
2018-03-22T18:23:50.773Z,99.90
2018-03-22T18:26:18.314Z,99.90
2018-03-22T18:28:46.567Z,99.90
2018-03-22T18:31:14.158Z,99.90
2018-03-22T18:33:42.432Z,99.90
2018-03-22T18:36:10.003Z,99.90
2018-03-22T18:38:38.301Z,99.90
2018-03-22T18:41:05.802Z,99.90
2018-03-22T18:43:33.382Z,99.90
2018-03-22T18:46:00.848Z,99.90
2018-03-22T18:48:28.355Z,99.90
2018-03-22T18:50:56.588Z,99.90
2018-03-22T18:53:24.183Z,99.90
2018-03-22T18:55:51.679Z,99.90
2018-03-22T18:58:19.936Z,99.90
2018-03-22T19:00:47.523Z,99.90
2018-03-22T19:03:14.998Z,99.90
2018-03-22T19:05:42.476Z,99.90
2018-03-22T19:08:09.965Z,99.90
2018-03-22T19:10:38.301Z,99.90
2018-03-22T19:13:05.799Z,99.90
2018-03-22T19:15:33.312Z,99.90
2018-03-22T19:18:01.798Z,99.90
2018-03-22T19:20:29.257Z,99.90
2018-03-22T19:22:57.543Z,99.90
2018-03-22T19:25:26.401Z,99.90
2018-03-22T19:27:53.918Z,99.90
2018-03-22T19:30:21.460Z,99.90
2018-03-22T19:32:49.375Z,99.90
2018-03-22T19:35:19.158Z,99.90
2018-03-22T19:37:46.618Z,99.90
2018-03-22T19:40:14.143Z,99.90
2018-03-22T19:42:41.657Z,99.90
2018-03-22T19:45:09.174Z,99.90
2018-03-22T19:47:36.743Z,99.90
2018-03-22T19:50:04.282Z,99.90
2018-03-22T19:52:32.855Z,99.90
2018-03-22T19:55:01.192Z,99.90
2018-03-22T19:57:28.706Z,99.90
2018-03-22T19:59:57.414Z,99.90
2018-03-22T20:02:25.409Z,99.90
2018-03-22T20:04:52.868Z,99.90
2018-03-22T20:07:20.512Z,99.90
2018-03-22T20:09:48.839Z,99.90
2018-03-22T20:12:16.976Z,99.90
2018-03-22T20:14:44.447Z,99.90
2018-03-22T20:17:11.991Z,99.90
2018-03-22T20:19:39.513Z,99.90
2018-03-22T20:22:07.475Z,99.90
2018-03-22T20:24:35.013Z,99.90
2018-03-22T20:27:02.664Z,99.90
2018-03-22T20:29:30.429Z,99.90
2018-03-22T20:31:57.982Z,99.90
2018-03-22T20:34:26.237Z,99.90
2018-03-22T20:36:53.713Z,99.90
2018-03-22T20:39:21.299Z,99.90
2018-03-22T20:41:48.816Z,99.90
2018-03-22T20:44:17.101Z,99.90
2018-03-22T20:46:44.985Z,99.90
2018-03-22T20:49:15.032Z,99.90
2018-03-22T20:51:42.668Z,99.90
2018-03-22T20:54:10.390Z,99.90
2018-03-22T20:56:38.008Z,99.90
2018-03-22T20:59:05.630Z,99.90
2018-03-22T21:01:33.163Z,99.90
2018-03-22T21:04:00.987Z,99.90
2018-03-22T21:06:28.445Z,99.90
2018-03-22T21:08:56.740Z,99.90
2018-03-22T21:11:24.207Z,99.90
2018-03-22T21:13:51.722Z,99.90
2018-03-22T21:16:19.474Z,99.90
2018-03-22T21:18:46.973Z,99.90
2018-03-22T21:21:14.549Z,99.90
2018-03-22T21:23:42.064Z,99.90
2018-03-22T21:26:09.727Z,99.90
2018-03-22T21:28:38.010Z,99.90
2018-03-22T21:31:08.165Z,99.90
2018-03-22T21:33:36.204Z,99.90
2018-03-22T21:36:03.683Z,99.90
2018-03-22T21:38:31.215Z,99.90
2018-03-22T21:40:59.474Z,99.90
2018-03-22T21:43:27.874Z,99.90
2018-03-22T21:45:55.386Z,99.90
2018-03-22T21:48:23.076Z,99.90
2018-03-22T21:50:51.394Z,99.90
2018-03-22T21:53:18.990Z,99.90
2018-03-22T21:55:46.504Z,99.90
2018-03-22T21:58:14.767Z,99.90
2018-03-22T22:00:42.311Z,99.90
2018-03-22T22:03:10.086Z,99.90
2018-03-22T22:05:37.685Z,99.90
2018-03-22T22:08:05.991Z,99.90
2018-03-22T22:10:34.258Z,99.90
2018-03-22T22:13:01.828Z,99.90
2018-03-22T22:15:30.133Z,99.90
2018-03-22T22:17:57.830Z,99.90
2018-03-22T22:20:25.367Z,99.90
2018-03-22T22:22:52.993Z,99.90
2018-03-22T22:25:20.546Z,99.90
2018-03-22T22:27:48.855Z,99.90
2018-03-22T22:30:17.113Z,99.90
2018-03-22T22:32:44.655Z,99.90
2018-03-22T22:35:12.133Z,99.90
2018-03-22T22:37:39.661Z,99.90
2018-03-22T22:40:07.231Z,99.90
2018-03-22T22:42:34.770Z,99.90
2018-03-22T22:45:02.332Z,99.90
2018-03-22T22:47:30.606Z,99.90
2018-03-22T22:49:58.090Z,99.90
2018-03-22T22:52:25.604Z,99.90
2018-03-22T22:54:53.115Z,99.90
2018-03-22T22:57:20.601Z,99.90
2018-03-22T22:59:48.113Z,99.90
2018-03-22T23:02:16.305Z,99.90
2018-03-22T23:04:43.794Z,99.90
2018-03-22T23:07:11.295Z,99.90
2018-03-22T23:09:38.803Z,99.90
2018-03-22T23:12:07.273Z,99.90
2018-03-22T23:14:34.766Z,99.90
2018-03-22T23:17:02.228Z,99.90
2018-03-22T23:19:29.757Z,99.90
2018-03-22T23:21:58.703Z,99.90
2018-03-22T23:24:27.720Z,99.90
2018-03-22T23:26:56.837Z,99.90
2018-03-22T23:29:28.308Z,99.90
2018-03-22T23:31:55.813Z,99.90
2018-03-22T23:34:23.472Z,99.90
2018-03-22T23:36:51.681Z,99.90
2018-03-22T23:39:19.941Z,99.90
2018-03-22T23:41:47.439Z,99.90
2018-03-22T23:44:14.918Z,99.90
2018-03-22T23:46:42.406Z,99.90
2018-03-22T23:49:09.872Z,99.90
2018-03-22T23:51:37.804Z,99.90
2018-03-22T23:54:05.308Z,99.90
2018-03-22T23:56:32.870Z,99.90
2018-03-22T23:59:00.358Z,99.90
